createdAt,value
2022-12-26T00:01:59.299Z,8.49
2022-12-26T00:04:48.650Z,7.90
2022-12-26T00:07:17.887Z,8.62
2022-12-26T00:09:46.360Z,7.93
2022-12-26T00:12:15.903Z,8.65
2022-12-26T00:14:56.289Z,8.84
2022-12-26T00:17:23.257Z,9.14
2022-12-26T00:19:50.300Z,9.08
2022-12-26T00:22:17.160Z,8.58
2022-12-26T00:24:44.148Z,8.85
2022-12-26T00:27:34.525Z,8.03
2022-12-26T00:30:08.831Z,7.86
2022-12-26T00:32:38.805Z,8.68
2022-12-26T00:35:08.504Z,8.58
2022-12-26T00:37:40.502Z,7.96
2022-12-26T00:40:14.457Z,8.54
2022-12-26T00:42:55.326Z,8.79
2022-12-26T00:45:22.246Z,8.39
2022-12-26T00:47:49.108Z,9.07
2022-12-26T00:50:16.263Z,7.83
2022-12-26T00:52:43.258Z,8.52
2022-12-26T00:55:10.275Z,9.08
2022-12-26T00:57:37.128Z,8.41
2022-12-26T01:00:06.976Z,8.25
2022-12-26T01:02:33.891Z,8.06
2022-12-26T01:05:02.717Z,8.32
2022-12-26T01:07:32.610Z,7.90
2022-12-26T01:09:59.501Z,9.09
2022-12-26T01:12:26.416Z,7.86
2022-12-26T01:14:55.744Z,7.93
2022-12-26T01:17:24.959Z,7.67
2022-12-26T01:19:52.746Z,8.54
2022-12-26T01:22:20.389Z,7.93
2022-12-26T01:24:47.109Z,9.10
2022-12-26T01:27:13.964Z,8.84
2022-12-26T01:29:40.934Z,8.67
2022-12-26T01:32:08.058Z,9.13
2022-12-26T01:34:39.229Z,8.84
2022-12-26T01:37:08.539Z,8.91
2022-12-26T01:39:35.595Z,8.64
2022-12-26T01:42:10.638Z,9.13
2022-12-26T01:45:17.793Z,9.10
2022-12-26T01:47:49.711Z,9.13
2022-12-26T01:50:29.274Z,8.57
2022-12-26T01:53:01.198Z,8.54
2022-12-26T01:55:30.355Z,8.40
2022-12-26T01:58:03.613Z,8.50
2022-12-26T02:00:31.771Z,8.83
2022-12-26T02:03:03.525Z,8.61
2022-12-26T02:05:34.496Z,8.17
2022-12-26T02:08:04.634Z,7.97
2022-12-26T02:10:42.522Z,8.31
2022-12-26T02:13:13.984Z,8.37
2022-12-26T02:15:43.041Z,9.05
2022-12-26T02:18:10.001Z,7.89
2022-12-26T02:20:45.045Z,8.35
2022-12-26T02:23:47.647Z,9.13
2022-12-26T02:26:49.919Z,9.15
2022-12-26T02:30:00.799Z,9.12
2022-12-26T02:32:40.297Z,9.15
2022-12-26T02:35:15.741Z,8.92
2022-12-26T02:37:54.713Z,9.07
2022-12-26T02:40:41.601Z,9.18
2022-12-26T02:43:17.159Z,8.70
2022-12-26T02:45:52.777Z,9.11
2022-12-26T02:48:32.356Z,8.72
2022-12-26T02:51:11.599Z,8.67
2022-12-26T02:53:46.596Z,8.07
2022-12-26T02:56:19.592Z,8.92
2022-12-26T02:58:57.840Z,9.28
2022-12-26T03:01:30.922Z,8.76
2022-12-26T03:04:04.479Z,9.18
2022-12-26T03:06:34.414Z,9.33
2022-12-26T03:09:04.691Z,8.17
2022-12-26T03:11:37.593Z,9.32
2022-12-26T03:14:13.981Z,9.32
2022-12-26T03:16:43.857Z,8.69
2022-12-26T03:19:15.581Z,8.84
2022-12-26T03:21:45.064Z,9.30
2022-12-26T03:24:14.296Z,8.11
2022-12-26T03:26:46.636Z,8.18
2022-12-26T03:29:18.979Z,8.38
2022-12-26T03:31:46.579Z,8.67
2022-12-26T03:34:14.815Z,8.68
2022-12-26T03:36:55.778Z,8.62
2022-12-26T03:39:32.213Z,9.34
2022-12-26T03:42:06.335Z,9.18
2022-12-26T03:44:41.135Z,8.89
2022-12-26T03:47:17.379Z,8.67
2022-12-26T03:49:52.003Z,8.38
2022-12-26T03:52:24.445Z,9.05
2022-12-26T03:54:57.112Z,9.27
2022-12-26T03:57:31.776Z,8.92
2022-12-26T04:00:03.039Z,8.50
2022-12-26T04:02:32.496Z,9.32
2022-12-26T04:05:04.293Z,9.33
2022-12-26T04:07:34.870Z,9.32
2022-12-26T04:10:07.870Z,9.30
2022-12-26T04:12:37.437Z,9.13
2022-12-26T04:15:11.998Z,9.26
2022-12-26T04:17:45.872Z,8.98
2022-12-26T04:20:19.955Z,9.20
2022-12-26T04:22:51.276Z,9.19
2022-12-26T04:25:49.008Z,9.20
2022-12-26T04:28:15.700Z,8.89
2022-12-26T04:30:47.785Z,8.00
2022-12-26T04:33:19.621Z,8.03
2022-12-26T04:35:52.331Z,8.59
2022-12-26T04:38:24.512Z,8.70
2022-12-26T04:40:59.524Z,7.94
2022-12-26T04:43:48.607Z,8.02
2022-12-26T04:46:17.638Z,8.14
2022-12-26T04:48:47.405Z,8.85
2022-12-26T04:51:16.033Z,9.21
2022-12-26T04:53:42.814Z,8.90
2022-12-26T04:56:11.036Z,8.80
2022-12-26T04:58:37.846Z,8.74
2022-12-26T05:01:04.648Z,9.16
2022-12-26T05:03:31.498Z,8.15
2022-12-26T05:05:58.697Z,8.99
2022-12-26T05:08:33.304Z,8.11
2022-12-26T05:11:00.124Z,7.89
2022-12-26T05:13:26.979Z,8.36
2022-12-26T05:15:53.815Z,7.94
2022-12-26T05:18:20.617Z,8.07
2022-12-26T05:20:47.701Z,7.94
2022-12-26T05:23:22.003Z,8.77
2022-12-26T05:25:51.994Z,8.00
2022-12-26T05:28:19.527Z,8.46
2022-12-26T05:30:49.516Z,9.12
2022-12-26T05:33:18.332Z,7.96
2022-12-26T05:35:46.368Z,9.12
2022-12-26T05:38:15.505Z,8.27
2022-12-26T05:40:42.365Z,8.25
2022-12-26T05:43:14.045Z,8.58
2022-12-26T05:45:43.731Z,8.98
2022-12-26T05:48:13.539Z,8.99
2022-12-26T05:50:42.269Z,8.22
2022-12-26T05:53:09.394Z,8.23
2022-12-26T05:55:36.294Z,8.22
2022-12-26T05:58:05.303Z,8.14
2022-12-26T06:00:33.821Z,8.68
2022-12-26T06:03:02.939Z,8.19
2022-12-26T06:05:29.999Z,8.97
2022-12-26T06:07:56.822Z,8.13
2022-12-26T06:10:23.528Z,8.48
2022-12-26T06:12:50.530Z,7.88
2022-12-26T06:15:17.334Z,8.21
2022-12-26T06:17:45.691Z,8.89
2022-12-26T06:20:12.518Z,8.49
2022-12-26T06:22:42.596Z,8.82
2022-12-26T06:25:13.464Z,8.90
2022-12-26T06:27:43.349Z,9.08
2022-12-26T06:30:11.013Z,9.08
2022-12-26T06:32:37.916Z,8.07
2022-12-26T06:35:09.716Z,8.15
2022-12-26T06:37:36.544Z,8.70
2022-12-26T06:40:03.878Z,8.76
2022-12-26T06:42:30.881Z,9.20
2022-12-26T06:44:58.214Z,9.22
2022-12-26T06:47:27.450Z,9.11
2022-12-26T06:49:56.148Z,8.50
2022-12-26T06:52:24.377Z,9.12
2022-12-26T06:54:51.247Z,7.94
2022-12-26T06:57:18.290Z,7.87
2022-12-26T06:59:45.045Z,8.17
2022-12-26T07:02:11.924Z,8.41
2022-12-26T07:04:38.923Z,8.13
2022-12-26T07:07:09.271Z,8.61
2022-12-26T07:09:38.195Z,7.90
2022-12-26T07:12:06.118Z,8.06
2022-12-26T07:14:33.290Z,7.99
2022-12-26T07:17:00.397Z,8.35
2022-12-26T07:19:29.330Z,8.67
2022-12-26T07:21:56.751Z,8.90
2022-12-26T07:24:23.519Z,8.93
2022-12-26T07:26:51.634Z,8.91
2022-12-26T07:29:18.750Z,8.56
2022-12-26T07:31:46.035Z,8.51
2022-12-26T07:34:14.446Z,7.90
2022-12-26T07:36:42.080Z,8.09
2022-12-26T07:39:09.237Z,8.44
2022-12-26T07:41:36.514Z,8.39
2022-12-26T07:44:05.011Z,8.04
2022-12-26T07:46:32.048Z,7.67
2022-12-26T07:48:59.155Z,8.76
2022-12-26T07:51:26.640Z,8.13
2022-12-26T07:53:53.398Z,7.86
2022-12-26T07:56:20.380Z,8.13
2022-12-26T07:58:49.130Z,7.80
2022-12-26T08:01:17.751Z,8.33
2022-12-26T08:03:46.339Z,7.95
2022-12-26T08:06:17.394Z,8.29
2022-12-26T08:08:50.484Z,8.47
2022-12-26T08:11:23.647Z,7.73
2022-12-26T08:13:50.907Z,8.96
2022-12-26T08:16:23.997Z,7.69
2022-12-26T08:18:52.954Z,8.48
2022-12-26T08:21:19.919Z,7.87
2022-12-26T08:23:46.957Z,7.88
2022-12-26T08:26:17.600Z,8.49
2022-12-26T08:28:44.409Z,7.81
2022-12-26T08:31:18.157Z,8.48
2022-12-26T08:33:50.573Z,7.83
2022-12-26T08:36:18.852Z,8.27
2022-12-26T08:38:46.627Z,8.91
2022-12-26T08:41:13.750Z,8.98
2022-12-26T08:46:27.391Z,8.94
2022-12-26T08:48:55.684Z,8.14
2022-12-26T08:51:30.388Z,8.55
2022-12-26T08:53:57.248Z,8.73
2022-12-26T08:56:25.402Z,8.93
2022-12-26T08:58:52.750Z,8.33
2022-12-26T09:01:21.959Z,8.26
2022-12-26T09:03:53.994Z,8.93
2022-12-26T09:06:28.596Z,8.31
2022-12-26T09:09:01.500Z,8.27
2022-12-26T09:11:29.465Z,8.64
2022-12-26T09:14:01.067Z,7.66
2022-12-26T09:16:50.077Z,8.93
2022-12-26T09:19:21.648Z,7.75
2022-12-26T09:21:53.812Z,7.62
2022-12-26T09:24:45.099Z,8.33
2022-12-26T09:27:12.037Z,7.74
2022-12-26T09:29:38.825Z,7.28
2022-12-26T09:32:06.170Z,8.37
2022-12-26T09:34:33.125Z,7.76
2022-12-26T09:37:01.313Z,8.07
2022-12-26T09:39:28.012Z,7.70
2022-12-26T09:42:03.859Z,7.87
2022-12-26T09:44:42.309Z,7.46
2022-12-26T09:47:22.078Z,7.68
2022-12-26T09:49:55.504Z,7.63
2022-12-26T09:52:32.531Z,6.97
2022-12-26T09:55:05.703Z,6.41
2022-12-26T09:57:38.131Z,6.45
2022-12-26T10:00:07.446Z,7.19
2022-12-26T10:02:34.375Z,6.41
2022-12-26T10:05:01.682Z,6.81
2022-12-26T10:07:36.321Z,7.53
2022-12-26T10:10:10.895Z,6.68
2022-12-26T10:12:50.814Z,7.56
2022-12-26T10:15:43.446Z,6.64
2022-12-26T10:18:28.207Z,7.67
2022-12-26T10:21:12.177Z,7.72
2022-12-26T10:23:44.724Z,7.66
2022-12-26T10:26:16.878Z,7.64
2022-12-26T10:28:47.929Z,7.54
2022-12-26T10:57:24.841Z,7.21
2022-12-26T10:59:56.897Z,7.22
2022-12-26T11:05:40.351Z,6.46
2022-12-26T11:08:49.714Z,7.04
2022-12-26T11:11:25.100Z,6.31
2022-12-26T11:14:06.009Z,6.05
2022-12-26T11:16:46.198Z,7.08
2022-12-26T11:19:47.062Z,7.27
2022-12-26T11:22:41.714Z,6.02
2022-12-26T11:25:24.297Z,7.33
2022-12-26T11:27:59.990Z,6.12
2022-12-26T11:30:50.631Z,6.62
2022-12-26T11:33:48.134Z,7.34
2022-12-26T11:39:05.251Z,6.09
2022-12-26T11:41:41.201Z,6.35
2022-12-26T11:44:46.090Z,6.01
2022-12-26T11:47:27.099Z,6.33
2022-12-26T11:50:17.420Z,7.29
2022-12-26T11:53:28.762Z,6.10
2022-12-26T11:56:07.663Z,6.12
2022-12-26T11:58:53.854Z,7.53
2022-12-26T12:04:24.855Z,7.00
2022-12-26T12:11:04.178Z,7.76
2022-12-26T12:14:07.497Z,8.03
2022-12-26T12:17:07.766Z,7.00
2022-12-26T12:20:14.791Z,6.85
2022-12-26T12:23:32.770Z,8.23
2022-12-26T12:26:31.507Z,8.39
2022-12-26T13:45:56.846Z,7.96
2022-12-26T13:49:06.464Z,7.98
2022-12-26T13:52:28.564Z,6.80
2022-12-26T13:55:33.586Z,7.66
2022-12-26T13:58:36.427Z,7.56
2022-12-26T14:01:20.510Z,7.31
2022-12-26T14:04:08.965Z,6.69
2022-12-26T14:07:38.267Z,6.36
2022-12-26T14:10:25.437Z,7.14
2022-12-26T14:13:42.601Z,7.22
2022-12-26T14:16:35.002Z,6.73
2022-12-26T14:19:30.123Z,7.51
2022-12-26T14:22:25.423Z,7.10
2022-12-26T14:25:20.259Z,6.08
2022-12-26T14:28:02.562Z,7.06
2022-12-26T14:31:04.144Z,7.20
2022-12-26T14:33:50.745Z,7.17
2022-12-26T14:37:00.160Z,5.72
2022-12-26T14:39:41.108Z,5.87
2022-12-26T14:42:35.663Z,5.69
2022-12-26T14:45:15.447Z,7.04
2022-12-26T14:47:46.183Z,5.82
2022-12-26T14:50:52.677Z,7.16
2022-12-26T14:53:41.236Z,6.92
2022-12-26T14:56:34.763Z,5.73
2022-12-26T14:59:42.461Z,5.52
2022-12-26T15:02:40.276Z,5.51
2022-12-26T15:05:43.834Z,6.78
2022-12-26T15:08:35.138Z,5.94
2022-12-26T15:11:42.842Z,6.60
2022-12-26T15:14:56.999Z,5.53
2022-12-26T15:17:39.690Z,6.02
2022-12-26T15:20:53.372Z,6.55
2022-12-26T15:23:54.681Z,6.47
2022-12-26T15:27:18.473Z,6.40
2022-12-26T15:30:04.664Z,5.79
2022-12-26T15:32:43.553Z,6.32
2022-12-26T15:35:31.577Z,5.39
2022-12-26T15:38:25.114Z,4.80
2022-12-26T15:41:10.215Z,6.21
2022-12-26T15:44:03.227Z,5.63
2022-12-26T15:46:36.619Z,5.55
2022-12-26T15:49:30.420Z,6.06
2022-12-26T15:52:10.602Z,5.16
2022-12-26T15:55:15.698Z,5.46
2022-12-26T15:58:05.014Z,4.75
2022-12-26T16:00:49.631Z,4.42
2022-12-26T16:03:36.742Z,4.47
2022-12-26T16:06:33.232Z,4.88
2022-12-26T16:09:20.327Z,4.93
2022-12-26T16:12:00.755Z,4.34
2022-12-26T16:14:47.851Z,5.30
2022-12-26T16:17:32.830Z,4.22
2022-12-26T16:20:18.967Z,4.40
2022-12-26T16:23:00.560Z,5.42
2022-12-26T16:25:27.880Z,5.16
2022-12-26T16:27:57.797Z,4.59
2022-12-26T16:30:40.318Z,5.36
2022-12-26T16:33:28.407Z,4.47
2022-12-26T16:36:18.699Z,5.02
2022-12-26T16:38:52.717Z,4.16
2022-12-26T16:41:22.236Z,4.14
2022-12-26T16:43:55.953Z,4.29
2022-12-26T16:46:33.746Z,4.82
2022-12-26T16:49:09.678Z,4.87
2022-12-26T16:52:03.106Z,4.74
2022-12-26T16:54:37.448Z,4.74
2022-12-26T16:57:16.950Z,4.67
2022-12-26T16:59:56.659Z,4.07
2022-12-26T17:02:34.660Z,5.05
2022-12-26T17:05:06.535Z,4.73
2022-12-26T17:07:38.812Z,3.95
2022-12-26T17:10:21.120Z,5.23
2022-12-26T17:12:50.753Z,3.77
2022-12-26T17:15:24.627Z,4.31
2022-12-26T17:17:53.027Z,3.67
2022-12-26T17:20:47.385Z,3.43
2022-12-26T17:23:36.998Z,5.17
2022-12-26T17:26:30.052Z,4.15
2022-12-26T17:29:06.185Z,5.11
2022-12-26T17:31:40.365Z,4.93
2022-12-26T17:34:23.450Z,5.02
2022-12-26T17:37:18.616Z,4.24
2022-12-26T17:39:42.255Z,4.67
2022-12-26T17:42:17.510Z,4.92
2022-12-26T17:44:48.539Z,4.58
2022-12-26T17:47:28.125Z,4.24
2022-12-26T17:50:10.461Z,3.39
2022-12-26T17:55:22.705Z,3.36
2022-12-26T17:57:49.989Z,4.03
2022-12-26T18:00:19.995Z,3.16
2022-12-26T18:02:54.494Z,4.29
2022-12-26T18:05:27.177Z,4.68
2022-12-26T18:07:56.500Z,3.23
2022-12-26T18:10:31.276Z,3.19
2022-12-26T18:13:01.664Z,4.17
2022-12-26T18:15:31.582Z,3.21
2022-12-26T18:17:58.679Z,4.04
2022-12-26T18:20:33.179Z,3.33
2022-12-26T18:23:19.521Z,4.41
2022-12-26T18:25:54.319Z,4.14
2022-12-26T18:28:31.426Z,4.00
2022-12-26T18:31:00.490Z,3.76
2022-12-26T18:33:28.131Z,4.65
2022-12-26T18:36:07.404Z,4.36
2022-12-26T18:38:36.006Z,3.41
2022-12-26T18:41:05.742Z,3.41
2022-12-26T18:43:35.379Z,3.18
2022-12-26T18:46:06.599Z,4.28
2022-12-26T18:48:33.423Z,3.73
2022-12-26T18:51:18.270Z,3.89
2022-12-26T18:53:45.743Z,3.88
2022-12-26T18:56:14.501Z,3.90
2022-12-26T18:58:46.264Z,3.72
2022-12-26T19:01:18.628Z,4.34
2022-12-26T19:03:54.104Z,2.86
2022-12-26T19:06:33.348Z,4.02
2022-12-26T19:09:07.442Z,4.36
2022-12-26T19:11:37.564Z,3.39
2022-12-26T19:14:15.305Z,2.90
2022-12-26T19:16:42.646Z,2.99
2022-12-26T19:19:09.563Z,3.83
2022-12-26T19:21:47.765Z,3.70
2022-12-26T19:24:17.095Z,4.31
2022-12-26T19:26:54.538Z,3.64
2022-12-26T19:29:21.441Z,3.06
2022-12-26T19:31:51.229Z,4.45
2022-12-26T19:34:23.891Z,4.09
2022-12-26T19:36:57.471Z,3.87
2022-12-26T19:39:31.811Z,3.40
2022-12-26T19:42:03.988Z,4.46
2022-12-26T19:44:35.276Z,3.60
2022-12-26T19:47:11.381Z,3.90
2022-12-26T19:49:40.024Z,3.81
2022-12-26T19:52:08.337Z,3.22
2022-12-26T19:54:37.922Z,4.20
2022-12-26T19:57:05.551Z,4.12
2022-12-26T19:59:36.062Z,3.90
2022-12-26T20:02:08.016Z,3.01
2022-12-26T20:04:37.922Z,4.23
2022-12-26T20:07:10.350Z,3.39
2022-12-26T20:09:40.511Z,3.37
2022-12-26T20:12:11.097Z,3.97
2022-12-26T20:14:45.878Z,4.18
2022-12-26T20:17:16.271Z,4.21
2022-12-26T20:19:43.029Z,3.93
2022-12-26T20:22:10.338Z,4.17
2022-12-26T20:24:44.651Z,3.50
2022-12-26T20:27:18.506Z,4.11
2022-12-26T20:29:45.457Z,3.87
2022-12-26T20:32:13.841Z,2.99
2022-12-26T20:37:29.445Z,3.76
2022-12-26T20:40:07.653Z,4.15
2022-12-26T20:42:37.247Z,3.82
2022-12-26T20:45:08.499Z,3.47
2022-12-26T20:47:53.062Z,4.62
2022-12-26T20:50:30.501Z,3.78
2022-12-26T20:53:08.698Z,4.50
2022-12-26T20:55:39.374Z,3.70
2022-12-26T20:58:06.214Z,3.02
2022-12-26T21:00:44.513Z,4.53
2022-12-26T21:03:27.618Z,3.44
2022-12-26T21:06:07.888Z,3.10
2022-12-26T21:08:50.409Z,2.99
2022-12-26T21:11:34.688Z,3.01
2022-12-26T21:14:17.399Z,4.18
2022-12-26T21:16:46.500Z,3.75
2022-12-26T21:19:18.756Z,4.35
2022-12-26T21:21:54.237Z,2.88
2022-12-26T21:24:33.546Z,2.96
2022-12-26T21:27:13.473Z,3.27
2022-12-26T21:29:50.980Z,3.41
2022-12-26T21:32:17.974Z,4.72
2022-12-26T21:34:51.509Z,3.39
2022-12-26T21:37:19.102Z,3.55
2022-12-26T21:39:53.786Z,4.72
2022-12-26T21:45:13.070Z,3.47
2022-12-26T21:47:44.985Z,4.54
2022-12-26T21:50:19.144Z,4.22
2022-12-26T21:52:50.479Z,3.23
2022-12-26T21:55:20.199Z,4.72
2022-12-26T21:57:54.601Z,3.26
2022-12-26T22:00:31.604Z,3.30
2022-12-26T22:03:06.940Z,3.80
2022-12-26T22:05:42.913Z,3.17
2022-12-26T22:08:21.159Z,4.68
2022-12-26T22:10:52.370Z,4.65
2022-12-26T22:13:27.631Z,4.60
2022-12-26T22:15:59.947Z,3.17
2022-12-26T22:18:46.414Z,4.24
2022-12-26T22:21:15.685Z,4.60
2022-12-26T22:23:43.474Z,4.14
2022-12-26T22:26:15.927Z,3.57
2022-12-26T22:28:50.205Z,3.29
2022-12-26T22:31:24.909Z,4.66
2022-12-26T22:34:02.692Z,3.66
2022-12-26T22:36:47.493Z,3.71
2022-12-26T22:39:37.978Z,2.98
2022-12-26T22:42:22.607Z,4.43
2022-12-26T22:45:03.766Z,4.67
2022-12-26T22:47:35.800Z,3.87
2022-12-26T22:50:13.428Z,4.46
2022-12-26T22:52:42.989Z,4.87
2022-12-26T22:55:19.722Z,4.92
2022-12-26T22:57:52.385Z,4.55
2022-12-26T23:00:21.955Z,3.64
2022-12-26T23:02:48.789Z,3.58
2022-12-26T23:05:18.768Z,4.81
2022-12-26T23:07:51.660Z,4.63
2022-12-26T23:10:21.928Z,4.48
2022-12-26T23:12:52.926Z,3.56
2022-12-26T23:15:27.260Z,4.10
2022-12-26T23:18:09.974Z,3.77
2022-12-26T23:20:38.951Z,3.98
2022-12-26T23:23:08.158Z,3.41
2022-12-26T23:25:37.132Z,3.38
2022-12-26T23:28:04.298Z,4.09
2022-12-26T23:30:32.521Z,3.31
2022-12-26T23:33:04.884Z,4.82
2022-12-26T23:35:33.641Z,4.21
2022-12-26T23:38:00.463Z,3.59
2022-12-26T23:40:30.437Z,4.69
2022-12-26T23:43:01.747Z,4.29
2022-12-26T23:45:28.560Z,4.65
2022-12-26T23:48:04.924Z,4.15
2022-12-26T23:50:37.397Z,4.70
2022-12-26T23:53:06.472Z,4.20
2022-12-26T23:55:34.563Z,4.02
2022-12-26T23:58:03.188Z,3.85
